CheckWX is a tool to help pilots better visualize weather data.  It is not intended as a substitute for an official pre-flight weather briefing.

06:28:53 UTC

KFHR METAR
Friday Harbor Airport
Friday Harbor, Washington, USA
Current

36 mins ago

KFHR 030553Z AUTO 26007KT 10SM BKN065 05/01 A3015 RMK AO2 SLP210 T00500006 10083 20044 51001
Observed
Apr-3 @ 05:53 UTC
Wind
  • 260° at 7 KTS
Visibility
Flight Rules
VFR
Cloud Levels
  • Broken at 6,500' AGL
Temperature
C / 41°F
Dewpoint
C / 34°F
Humidity
76%
Altimeter
30.15" Hg
Pressure
1021.02 hPa
Previous

2 hours ago

KFHR 030453Z AUTO VRB06KT 10SM OVC070 05/00 A3015 RMK AO2 SLP210 T00500000
Observed
Apr-3 @ 04:53 UTC
Wind
  • Variable at 6 KTS
Visibility
Flight Rules
VFR
Cloud Levels
  • Overcast at 7,000' AGL
Temperature
C / 41°F
Dewpoint
C / 32°F
Humidity
70%
Altimeter
30.15" Hg
Pressure
1021.02 hPa
Previous

3 hours ago

KFHR 030353Z AUTO 25007G14KT 10SM OVC070 06/M01 A3015 RMK AO2 SLP211 T00561006
Observed
Apr-3 @ 03:53 UTC
Wind
  • 250° at 7 KTS
  • Gusting to 14 KTS
Visibility
Flight Rules
VFR
Cloud Levels
  • Overcast at 7,000' AGL
Temperature
C / 43°F
Dewpoint
-1°C / 30°F
Humidity
61%
Altimeter
30.15" Hg
Pressure
1021.02 hPa